X  SluitMETAR luchtvaart weer gegevens      EHAM Amsterdam Schiphol

Temperatuur

8°C Temperatuur

-2°C Dauwpunt

50% Vochtigheid



Wind

16 KM/U

10 MPH

 4 M/S

 9 KTS



20°
Noord Noord
Oost
Huidig weer

Wat bewolking Wat bewolking
Luchtdruk 1029.92 (hPa) - 30.41 (in)
Zicht 6.2 (mi) - 10 (km)
Vliegveld
Vliegveld code EHAM

Locatie Amsterdam Schiphol 18 (km)

Metar:
EHAM 311455Z 02009KT 350V080 9999 FEW043 08/M02 Q1030 NOSIG

Tijd: 31-03-2020 16:55